Terminal Aerodrome Forecast
Issued by NWS Shreveport, LA

Home | Current Version | Previous Version | Text Only | Print | Product List | Glossary On
Versions: 1 2 3 4 5 6 7 8 9 10 11 12 13 14 15 16 17 18 19 20
000
FTUS44 KSHV 211127
TAFGGG
TAF
KGGG 211127Z 2112/2212 17010KT P6SM OVC012
      TEMPO 2114/2116 17012G18KT OVC015
     FM211600 18014G22KT P6SM OVC020
     FM211900 18015G25KT P6SM BKN030
      TEMPO 2200/2203 VRB20G40KT 2SM TSRA BR OVC015CB
     FM220400 22012KT P6SM SKC
      TEMPO 2204/2207 21012G20KT BKN080=

USA.gov is the U.S. government's official web portal to all federal, state and local government web resources and services.